sensor_id;sensor_type;location;lat;lon;timestamp;temperature;humidity
18085;DHT22;9169;44.492;11.372;2022-08-18T00:02:25;29.50;39.50
18085;DHT22;9169;44.492;11.372;2022-08-18T00:04:52;29.50;39.50
18085;DHT22;9169;44.492;11.372;2022-08-18T00:07:20;29.50;39.60
18085;DHT22;9169;44.492;11.372;2022-08-18T00:09:47;29.50;39.60
18085;DHT22;9169;44.492;11.372;2022-08-18T00:12:16;29.50;40.30
18085;DHT22;9169;44.492;11.372;2022-08-18T00:14:44;29.50;40.40
18085;DHT22;9169;44.492;11.372;2022-08-18T00:17:12;29.50;40.00
18085;DHT22;9169;44.492;11.372;2022-08-18T00:19:38;29.50;40.80
18085;DHT22;9169;44.492;11.372;2022-08-18T00:22:06;29.40;41.20
18085;DHT22;9169;44.492;11.372;2022-08-18T00:24:33;29.30;41.50
18085;DHT22;9169;44.492;11.372;2022-08-18T00:27:00;29.30;41.10
18085;DHT22;9169;44.492;11.372;2022-08-18T00:29:29;29.30;41.20
18085;DHT22;9169;44.492;11.372;2022-08-18T00:31:55;29.30;41.00
18085;DHT22;9169;44.492;11.372;2022-08-18T00:34:22;29.30;41.30
18085;DHT22;9169;44.492;11.372;2022-08-18T00:36:49;29.30;42.20
18085;DHT22;9169;44.492;11.372;2022-08-18T00:39:16;29.20;42.90
18085;DHT22;9169;44.492;11.372;2022-08-18T00:41:42;29.20;42.70
18085;DHT22;9169;44.492;11.372;2022-08-18T00:44:09;29.10;42.10
18085;DHT22;9169;44.492;11.372;2022-08-18T00:46:38;29.10;41.70
18085;DHT22;9169;44.492;11.372;2022-08-18T00:49:05;29.20;41.80
18085;DHT22;9169;44.492;11.372;2022-08-18T00:51:32;29.10;42.70
18085;DHT22;9169;44.492;11.372;2022-08-18T00:54:02;29.10;42.40
18085;DHT22;9169;44.492;11.372;2022-08-18T00:56:33;29.10;43.00
18085;DHT22;9169;44.492;11.372;2022-08-18T00:59:02;29.00;42.90
18085;DHT22;9169;44.492;11.372;2022-08-18T01:01:32;29.00;42.50
18085;DHT22;9169;44.492;11.372;2022-08-18T01:04:01;29.00;42.20
18085;DHT22;9169;44.492;11.372;2022-08-18T01:06:32;29.00;42.80
18085;DHT22;9169;44.492;11.372;2022-08-18T01:09:00;29.00;43.10
18085;DHT22;9169;44.492;11.372;2022-08-18T01:11:27;28.90;43.60
18085;DHT22;9169;44.492;11.372;2022-08-18T01:13:54;28.90;42.70
18085;DHT22;9169;44.492;11.372;2022-08-18T01:16:21;28.90;42.40
18085;DHT22;9169;44.492;11.372;2022-08-18T01:19:07;28.90;42.00
18085;DHT22;9169;44.492;11.372;2022-08-18T01:21:58;28.90;42.50
18085;DHT22;9169;44.492;11.372;2022-08-18T01:24:32;28.90;43.00
18085;DHT22;9169;44.492;11.372;2022-08-18T01:27:33;28.80;43.10
18085;DHT22;9169;44.492;11.372;2022-08-18T01:30:02;28.80;42.60
18085;DHT22;9169;44.492;11.372;2022-08-18T01:32:29;28.80;43.30
18085;DHT22;9169;44.492;11.372;2022-08-18T01:34:56;28.80;42.70
18085;DHT22;9169;44.492;11.372;2022-08-18T01:37:23;28.80;42.60
18085;DHT22;9169;44.492;11.372;2022-08-18T01:39:51;28.80;43.20
18085;DHT22;9169;44.492;11.372;2022-08-18T01:42:18;28.80;43.10
18085;DHT22;9169;44.492;11.372;2022-08-18T01:44:45;28.80;43.00
18085;DHT22;9169;44.492;11.372;2022-08-18T01:47:13;28.80;43.30
18085;DHT22;9169;44.492;11.372;2022-08-18T01:49:42;28.80;44.00
18085;DHT22;9169;44.492;11.372;2022-08-18T01:52:09;28.70;43.30
18085;DHT22;9169;44.492;11.372;2022-08-18T01:54:36;28.70;43.60
18085;DHT22;9169;44.492;11.372;2022-08-18T01:57:05;28.70;44.00
18085;DHT22;9169;44.492;11.372;2022-08-18T01:59:39;28.70;43.60
18085;DHT22;9169;44.492;11.372;2022-08-18T02:02:06;28.80;42.70
18085;DHT22;9169;44.492;11.372;2022-08-18T02:04:33;28.80;42.70
18085;DHT22;9169;44.492;11.372;2022-08-18T02:07:03;28.80;42.70
18085;DHT22;9169;44.492;11.372;2022-08-18T02:09:30;28.80;42.60
18085;DHT22;9169;44.492;11.372;2022-08-18T02:11:57;28.90;42.50
18085;DHT22;9169;44.492;11.372;2022-08-18T02:14:26;28.90;42.80
18085;DHT22;9169;44.492;11.372;2022-08-18T02:16:54;28.90;43.90
18085;DHT22;9169;44.492;11.372;2022-08-18T02:19:21;28.80;43.50
18085;DHT22;9169;44.492;11.372;2022-08-18T02:21:48;28.80;43.30
18085;DHT22;9169;44.492;11.372;2022-08-18T02:24:16;28.80;43.70
18085;DHT22;9169;44.492;11.372;2022-08-18T02:26:43;28.80;43.90
18085;DHT22;9169;44.492;11.372;2022-08-18T02:29:10;28.70;43.60
18085;DHT22;9169;44.492;11.372;2022-08-18T02:31:38;28.70;43.00
18085;DHT22;9169;44.492;11.372;2022-08-18T02:34:05;28.80;42.70
18085;DHT22;9169;44.492;11.372;2022-08-18T02:36:31;28.80;43.40
18085;DHT22;9169;44.492;11.372;2022-08-18T02:38:58;28.80;43.50
18085;DHT22;9169;44.492;11.372;2022-08-18T02:41:25;28.70;44.60
18085;DHT22;9169;44.492;11.372;2022-08-18T02:43:52;28.70;43.80
18085;DHT22;9169;44.492;11.372;2022-08-18T02:46:19;28.70;42.90
18085;DHT22;9169;44.492;11.372;2022-08-18T02:48:47;28.80;42.70
18085;DHT22;9169;44.492;11.372;2022-08-18T02:51:15;28.80;42.40
18085;DHT22;9169;44.492;11.372;2022-08-18T02:53:43;28.80;42.30
18085;DHT22;9169;44.492;11.372;2022-08-18T02:56:11;28.80;42.60
18085;DHT22;9169;44.492;11.372;2022-08-18T02:58:46;28.80;43.00
18085;DHT22;9169;44.492;11.372;2022-08-18T03:01:13;28.80;42.40
18085;DHT22;9169;44.492;11.372;2022-08-18T03:03:40;28.80;42.50
18085;DHT22;9169;44.492;11.372;2022-08-18T03:06:08;28.80;42.40
18085;DHT22;9169;44.492;11.372;2022-08-18T03:08:34;28.80;42.00
18085;DHT22;9169;44.492;11.372;2022-08-18T03:11:01;28.70;42.50
18085;DHT22;9169;44.492;11.372;2022-08-18T03:13:28;28.70;42.60
18085;DHT22;9169;44.492;11.372;2022-08-18T03:15:55;28.70;42.10
18085;DHT22;9169;44.492;11.372;2022-08-18T03:18:21;28.70;41.80
18085;DHT22;9169;44.492;11.372;2022-08-18T03:20:48;28.70;41.70
18085;DHT22;9169;44.492;11.372;2022-08-18T03:23:17;28.70;41.70
18085;DHT22;9169;44.492;11.372;2022-08-18T03:25:44;28.70;41.70
18085;DHT22;9169;44.492;11.372;2022-08-18T03:28:11;28.60;41.60
18085;DHT22;9169;44.492;11.372;2022-08-18T03:30:38;28.60;41.50
18085;DHT22;9169;44.492;11.372;2022-08-18T03:33:05;28.60;42.00
18085;DHT22;9169;44.492;11.372;2022-08-18T03:35:33;28.60;41.80
18085;DHT22;9169;44.492;11.372;2022-08-18T03:38:00;28.60;41.50
18085;DHT22;9169;44.492;11.372;2022-08-18T03:40:28;28.60;41.70
18085;DHT22;9169;44.492;11.372;2022-08-18T03:42:55;28.60;41.40
18085;DHT22;9169;44.492;11.372;2022-08-18T03:45:22;28.60;41.50
18085;DHT22;9169;44.492;11.372;2022-08-18T03:47:48;28.60;41.70
18085;DHT22;9169;44.492;11.372;2022-08-18T03:50:16;28.50;41.90
18085;DHT22;9169;44.492;11.372;2022-08-18T03:52:44;28.50;41.60
18085;DHT22;9169;44.492;11.372;2022-08-18T03:55:13;28.50;41.50
18085;DHT22;9169;44.492;11.372;2022-08-18T03:57:41;28.50;41.40
18085;DHT22;9169;44.492;11.372;2022-08-18T04:00:10;28.50;41.50
18085;DHT22;9169;44.492;11.372;2022-08-18T04:02:37;28.50;41.80
18085;DHT22;9169;44.492;11.372;2022-08-18T04:05:04;28.50;41.90
18085;DHT22;9169;44.492;11.372;2022-08-18T04:07:31;28.50;42.00
18085;DHT22;9169;44.492;11.372;2022-08-18T04:09:58;28.40;42.20
18085;DHT22;9169;44.492;11.372;2022-08-18T04:12:25;28.30;43.00
18085;DHT22;9169;44.492;11.372;2022-08-18T04:14:53;28.30;42.10
18085;DHT22;9169;44.492;11.372;2022-08-18T04:17:20;28.20;42.90
18085;DHT22;9169;44.492;11.372;2022-08-18T04:19:49;28.20;42.90
18085;DHT22;9169;44.492;11.372;2022-08-18T04:22:16;28.10;42.60
18085;DHT22;9169;44.492;11.372;2022-08-18T04:24:43;28.10;42.50
18085;DHT22;9169;44.492;11.372;2022-08-18T04:27:10;28.10;42.60
18085;DHT22;9169;44.492;11.372;2022-08-18T04:29:36;28.10;42.80
18085;DHT22;9169;44.492;11.372;2022-08-18T04:32:05;28.10;43.20
18085;DHT22;9169;44.492;11.372;2022-08-18T04:34:32;28.10;42.40
18085;DHT22;9169;44.492;11.372;2022-08-18T04:36:59;28.20;42.70
18085;DHT22;9169;44.492;11.372;2022-08-18T04:39:27;28.20;42.40
18085;DHT22;9169;44.492;11.372;2022-08-18T04:41:53;28.20;42.40
18085;DHT22;9169;44.492;11.372;2022-08-18T04:44:20;28.20;42.60
18085;DHT22;9169;44.492;11.372;2022-08-18T04:46:48;28.20;42.10
18085;DHT22;9169;44.492;11.372;2022-08-18T04:49:17;28.30;41.90
18085;DHT22;9169;44.492;11.372;2022-08-18T04:51:45;28.40;41.80
18085;DHT22;9169;44.492;11.372;2022-08-18T04:54:33;28.30;42.30
18085;DHT22;9169;44.492;11.372;2022-08-18T04:57:06;28.30;42.40
18085;DHT22;9169;44.492;11.372;2022-08-18T04:59:33;28.30;42.00
18085;DHT22;9169;44.492;11.372;2022-08-18T05:02:00;28.40;42.00
18085;DHT22;9169;44.492;11.372;2022-08-18T05:04:31;28.40;41.90
18085;DHT22;9169;44.492;11.372;2022-08-18T05:06:59;28.40;42.80
18085;DHT22;9169;44.492;11.372;2022-08-18T05:09:26;28.40;42.80
18085;DHT22;9169;44.492;11.372;2022-08-18T05:11:52;28.40;42.80
18085;DHT22;9169;44.492;11.372;2022-08-18T05:14:19;28.40;43.00
18085;DHT22;9169;44.492;11.372;2022-08-18T05:16:46;28.40;43.10
18085;DHT22;9169;44.492;11.372;2022-08-18T05:19:13;28.40;42.60
18085;DHT22;9169;44.492;11.372;2022-08-18T05:21:42;28.40;43.20
18085;DHT22;9169;44.492;11.372;2022-08-18T05:24:08;28.40;43.80
18085;DHT22;9169;44.492;11.372;2022-08-18T05:26:35;28.40;43.50
18085;DHT22;9169;44.492;11.372;2022-08-18T05:29:02;28.40;43.00
18085;DHT22;9169;44.492;11.372;2022-08-18T05:31:29;28.40;42.90
18085;DHT22;9169;44.492;11.372;2022-08-18T05:33:57;28.40;42.70
18085;DHT22;9169;44.492;11.372;2022-08-18T05:36:34;28.40;42.50
18085;DHT22;9169;44.492;11.372;2022-08-18T05:39:07;28.40;42.20
18085;DHT22;9169;44.492;11.372;2022-08-18T05:41:37;28.40;41.90
18085;DHT22;9169;44.492;11.372;2022-08-18T05:44:05;28.50;41.90
18085;DHT22;9169;44.492;11.372;2022-08-18T05:46:35;28.50;41.70
18085;DHT22;9169;44.492;11.372;2022-08-18T05:49:03;28.60;42.50
18085;DHT22;9169;44.492;11.372;2022-08-18T05:51:31;28.50;42.10
18085;DHT22;9169;44.492;11.372;2022-08-18T05:54:00;28.60;42.20
18085;DHT22;9169;44.492;11.372;2022-08-18T05:56:46;28.60;42.40
18085;DHT22;9169;44.492;11.372;2022-08-18T05:59:16;28.50;43.10
18085;DHT22;9169;44.492;11.372;2022-08-18T06:01:45;28.50;42.90
18085;DHT22;9169;44.492;11.372;2022-08-18T06:04:18;28.50;42.70
18085;DHT22;9169;44.492;11.372;2022-08-18T06:06:47;28.50;42.40
18085;DHT22;9169;44.492;11.372;2022-08-18T06:09:16;28.50;43.10
18085;DHT22;9169;44.492;11.372;2022-08-18T06:11:44;28.50;44.10
18085;DHT22;9169;44.492;11.372;2022-08-18T06:14:13;28.40;43.80
18085;DHT22;9169;44.492;11.372;2022-08-18T06:16:44;28.40;43.60
18085;DHT22;9169;44.492;11.372;2022-08-18T06:19:26;28.40;43.80
18085;DHT22;9169;44.492;11.372;2022-08-18T06:21:55;28.30;43.70
18085;DHT22;9169;44.492;11.372;2022-08-18T06:24:24;28.30;43.80
18085;DHT22;9169;44.492;11.372;2022-08-18T06:26:53;28.20;44.40
18085;DHT22;9169;44.492;11.372;2022-08-18T06:29:28;28.20;44.30
18085;DHT22;9169;44.492;11.372;2022-08-18T06:32:05;28.00;45.00
18085;DHT22;9169;44.492;11.372;2022-08-18T06:34:37;28.00;44.60
18085;DHT22;9169;44.492;11.372;2022-08-18T06:37:09;28.00;44.40
18085;DHT22;9169;44.492;11.372;2022-08-18T06:39:38;28.00;44.00
18085;DHT22;9169;44.492;11.372;2022-08-18T06:42:08;28.10;44.30
18085;DHT22;9169;44.492;11.372;2022-08-18T06:44:36;28.10;44.20
18085;DHT22;9169;44.492;11.372;2022-08-18T06:47:07;28.20;44.10
18085;DHT22;9169;44.492;11.372;2022-08-18T06:49:42;28.20;44.20
18085;DHT22;9169;44.492;11.372;2022-08-18T06:52:17;28.20;43.90
18085;DHT22;9169;44.492;11.372;2022-08-18T06:54:44;28.30;44.00
18085;DHT22;9169;44.492;11.372;2022-08-18T06:57:20;28.30;43.80
18085;DHT22;9169;44.492;11.372;2022-08-18T06:59:54;28.30;44.10
18085;DHT22;9169;44.492;11.372;2022-08-18T07:02:22;28.30;44.00
18085;DHT22;9169;44.492;11.372;2022-08-18T07:05:00;28.30;44.20
18085;DHT22;9169;44.492;11.372;2022-08-18T07:07:31;28.30;44.00
18085;DHT22;9169;44.492;11.372;2022-08-18T07:09:58;28.30;44.00
18085;DHT22;9169;44.492;11.372;2022-08-18T07:12:26;28.30;44.10
18085;DHT22;9169;44.492;11.372;2022-08-18T07:14:55;28.30;44.40
18085;DHT22;9169;44.492;11.372;2022-08-18T07:17:24;28.30;45.30
18085;DHT22;9169;44.492;11.372;2022-08-18T07:19:58;28.20;44.60
18085;DHT22;9169;44.492;11.372;2022-08-18T07:22:25;28.20;44.50
18085;DHT22;9169;44.492;11.372;2022-08-18T07:24:52;28.10;44.40
18085;DHT22;9169;44.492;11.372;2022-08-18T07:27:20;28.10;44.60
18085;DHT22;9169;44.492;11.372;2022-08-18T07:29:59;28.20;44.70
18085;DHT22;9169;44.492;11.372;2022-08-18T07:32:27;28.10;44.60
18085;DHT22;9169;44.492;11.372;2022-08-18T07:34:56;28.10;44.90
18085;DHT22;9169;44.492;11.372;2022-08-18T07:37:25;28.10;45.50
18085;DHT22;9169;44.492;11.372;2022-08-18T07:39:54;28.10;44.30
18085;DHT22;9169;44.492;11.372;2022-08-18T07:42:23;28.20;44.30
18085;DHT22;9169;44.492;11.372;2022-08-18T07:44:55;28.20;44.50
18085;DHT22;9169;44.492;11.372;2022-08-18T07:47:27;28.20;44.90
18085;DHT22;9169;44.492;11.372;2022-08-18T07:49:54;28.20;44.30
18085;DHT22;9169;44.492;11.372;2022-08-18T07:52:24;28.20;44.00
18085;DHT22;9169;44.492;11.372;2022-08-18T07:54:53;28.30;44.20
18085;DHT22;9169;44.492;11.372;2022-08-18T07:57:24;28.30;44.50
18085;DHT22;9169;44.492;11.372;2022-08-18T07:59:53;28.30;44.80
18085;DHT22;9169;44.492;11.372;2022-08-18T08:02:27;28.30;44.80
18085;DHT22;9169;44.492;11.372;2022-08-18T08:04:59;28.30;44.30
18085;DHT22;9169;44.492;11.372;2022-08-18T08:07:28;28.30;44.10
18085;DHT22;9169;44.492;11.372;2022-08-18T08:10:02;28.40;44.00
18085;DHT22;9169;44.492;11.372;2022-08-18T08:12:33;28.40;44.80
18085;DHT22;9169;44.492;11.372;2022-08-18T08:15:04;28.40;43.80
18085;DHT22;9169;44.492;11.372;2022-08-18T08:17:37;28.40;44.00
18085;DHT22;9169;44.492;11.372;2022-08-18T08:20:17;28.50;43.90
18085;DHT22;9169;44.492;11.372;2022-08-18T08:22:51;28.30;43.90
18085;DHT22;9169;44.492;11.372;2022-08-18T08:25:24;28.40;43.80
18085;DHT22;9169;44.492;11.372;2022-08-18T08:27:59;28.40;44.10
18085;DHT22;9169;44.492;11.372;2022-08-18T08:30:33;28.40;44.50
18085;DHT22;9169;44.492;11.372;2022-08-18T08:33:04;28.30;44.30
18085;DHT22;9169;44.492;11.372;2022-08-18T08:35:35;28.30;44.20
18085;DHT22;9169;44.492;11.372;2022-08-18T08:38:05;28.30;44.00
18085;DHT22;9169;44.492;11.372;2022-08-18T08:40:36;28.30;44.40
18085;DHT22;9169;44.492;11.372;2022-08-18T08:43:05;28.20;44.70
18085;DHT22;9169;44.492;11.372;2022-08-18T08:45:35;28.20;44.30
18085;DHT22;9169;44.492;11.372;2022-08-18T08:48:06;28.20;45.20
18085;DHT22;9169;44.492;11.372;2022-08-18T08:50:37;28.10;45.70
18085;DHT22;9169;44.492;11.372;2022-08-18T08:53:06;27.90;45.60
18085;DHT22;9169;44.492;11.372;2022-08-18T08:55:36;27.90;46.20
18085;DHT22;9169;44.492;11.372;2022-08-18T08:58:11;27.70;47.80
18085;DHT22;9169;44.492;11.372;2022-08-18T09:00:41;27.60;48.30
18085;DHT22;9169;44.492;11.372;2022-08-18T09:03:14;27.50;48.80
18085;DHT22;9169;44.492;11.372;2022-08-18T09:05:46;27.40;48.40
18085;DHT22;9169;44.492;11.372;2022-08-18T09:08:29;27.30;49.00
18085;DHT22;9169;44.492;11.372;2022-08-18T09:13:49;27.10;48.30
18085;DHT22;9169;44.492;11.372;2022-08-18T09:16:22;27.10;48.30
18085;DHT22;9169;44.492;11.372;2022-08-18T09:18:59;27.10;48.00
18085;DHT22;9169;44.492;11.372;2022-08-18T09:21:34;27.00;47.80
18085;DHT22;9169;44.492;11.372;2022-08-18T09:24:07;27.00;47.80
18085;DHT22;9169;44.492;11.372;2022-08-18T09:26:39;27.00;47.90
18085;DHT22;9169;44.492;11.372;2022-08-18T09:29:13;27.00;48.00
18085;DHT22;9169;44.492;11.372;2022-08-18T09:31:40;27.00;48.40
18085;DHT22;9169;44.492;11.372;2022-08-18T09:34:18;26.90;51.10
18085;DHT22;9169;44.492;11.372;2022-08-18T09:37:02;26.80;53.10
18085;DHT22;9169;44.492;11.372;2022-08-18T09:39:30;26.60;51.40
18085;DHT22;9169;44.492;11.372;2022-08-18T09:42:17;26.60;50.40
18085;DHT22;9169;44.492;11.372;2022-08-18T09:44:57;26.50;50.30
18085;DHT22;9169;44.492;11.372;2022-08-18T09:53:15;26.30;50.70
18085;DHT22;9169;44.492;11.372;2022-08-18T09:55:56;26.20;49.40
18085;DHT22;9169;44.492;11.372;2022-08-18T10:01:18;26.10;49.60
18085;DHT22;9169;44.492;11.372;2022-08-18T10:03:57;25.90;49.70
18085;DHT22;9169;44.492;11.372;2022-08-18T10:06:43;25.80;49.10
18085;DHT22;9169;44.492;11.372;2022-08-18T10:09:29;25.70;50.20
18085;DHT22;9169;44.492;11.372;2022-08-18T10:12:11;25.70;51.00
18085;DHT22;9169;44.492;11.372;2022-08-18T10:14:46;25.60;50.80
18085;DHT22;9169;44.492;11.372;2022-08-18T10:17:21;25.50;49.20
18085;DHT22;9169;44.492;11.372;2022-08-18T10:19:52;25.60;49.00
18085;DHT22;9169;44.492;11.372;2022-08-18T10:22:33;25.50;49.30
18085;DHT22;9169;44.492;11.372;2022-08-18T10:25:02;25.60;48.90
18085;DHT22;9169;44.492;11.372;2022-08-18T10:27:34;25.60;48.60
18085;DHT22;9169;44.492;11.372;2022-08-18T10:30:02;25.60;48.70
18085;DHT22;9169;44.492;11.372;2022-08-18T10:32:40;25.60;48.80
18085;DHT22;9169;44.492;11.372;2022-08-18T10:37:52;25.70;47.70
18085;DHT22;9169;44.492;11.372;2022-08-18T10:40:21;25.80;47.70
18085;DHT22;9169;44.492;11.372;2022-08-18T10:42:50;25.80;47.50
18085;DHT22;9169;44.492;11.372;2022-08-18T10:45:19;25.90;47.50
18085;DHT22;9169;44.492;11.372;2022-08-18T10:47:56;26.00;47.10
18085;DHT22;9169;44.492;11.372;2022-08-18T10:50:24;26.10;46.90
18085;DHT22;9169;44.492;11.372;2022-08-18T10:52:57;26.20;46.60
18085;DHT22;9169;44.492;11.372;2022-08-18T10:55:31;26.40;46.40
18085;DHT22;9169;44.492;11.372;2022-08-18T10:58:05;26.60;46.90
18085;DHT22;9169;44.492;11.372;2022-08-18T11:00:39;26.80;46.60
18085;DHT22;9169;44.492;11.372;2022-08-18T11:03:08;27.00;46.90
18085;DHT22;9169;44.492;11.372;2022-08-18T11:05:39;27.20;46.50
18085;DHT22;9169;44.492;11.372;2022-08-18T11:08:11;27.50;46.50
18085;DHT22;9169;44.492;11.372;2022-08-18T11:10:40;27.70;46.20
18085;DHT22;9169;44.492;11.372;2022-08-18T11:13:15;28.10;46.30
18085;DHT22;9169;44.492;11.372;2022-08-18T11:15:48;28.60;45.80
18085;DHT22;9169;44.492;11.372;2022-08-18T11:18:21;29.00;46.00
18085;DHT22;9169;44.492;11.372;2022-08-18T11:20:53;29.40;45.70
18085;DHT22;9169;44.492;11.372;2022-08-18T11:23:20;29.90;44.90
18085;DHT22;9169;44.492;11.372;2022-08-18T11:25:48;30.30;45.20
18085;DHT22;9169;44.492;11.372;2022-08-18T11:28:16;30.70;44.20
18085;DHT22;9169;44.492;11.372;2022-08-18T11:30:43;31.00;44.20
18085;DHT22;9169;44.492;11.372;2022-08-18T11:33:12;31.40;43.80
18085;DHT22;9169;44.492;11.372;2022-08-18T11:35:44;31.80;43.30
18085;DHT22;9169;44.492;11.372;2022-08-18T11:38:12;32.20;42.80
18085;DHT22;9169;44.492;11.372;2022-08-18T11:40:39;32.40;42.00
18085;DHT22;9169;44.492;11.372;2022-08-18T11:43:11;32.40;42.20
18085;DHT22;9169;44.492;11.372;2022-08-18T11:45:49;32.30;41.80
18085;DHT22;9169;44.492;11.372;2022-08-18T11:48:18;32.20;41.80
18085;DHT22;9169;44.492;11.372;2022-08-18T11:50:46;32.10;41.60
18085;DHT22;9169;44.492;11.372;2022-08-18T11:53:14;32.00;41.40
18085;DHT22;9169;44.492;11.372;2022-08-18T11:55:43;32.20;41.40
18085;DHT22;9169;44.492;11.372;2022-08-18T11:58:11;32.60;41.20
18085;DHT22;9169;44.492;11.372;2022-08-18T12:00:58;33.10;41.00
18085;DHT22;9169;44.492;11.372;2022-08-18T12:03:26;33.70;40.20
18085;DHT22;9169;44.492;11.372;2022-08-18T12:05:55;34.10;39.80
18085;DHT22;9169;44.492;11.372;2022-08-18T12:08:26;34.70;39.40
18085;DHT22;9169;44.492;11.372;2022-08-18T12:11:00;35.10;38.90
18085;DHT22;9169;44.492;11.372;2022-08-18T12:13:29;35.50;38.50
18085;DHT22;9169;44.492;11.372;2022-08-18T12:16:06;35.70;38.30
18085;DHT22;9169;44.492;11.372;2022-08-18T12:18:34;35.90;38.20
18085;DHT22;9169;44.492;11.372;2022-08-18T12:21:00;36.00;38.10
18085;DHT22;9169;44.492;11.372;2022-08-18T12:23:27;35.80;38.20
18085;DHT22;9169;44.492;11.372;2022-08-18T12:25:54;35.90;38.50
18085;DHT22;9169;44.492;11.372;2022-08-18T12:28:21;36.40;38.60
18085;DHT22;9169;44.492;11.372;2022-08-18T12:30:49;37.10;38.20
18085;DHT22;9169;44.492;11.372;2022-08-18T12:33:16;38.20;37.60
18085;DHT22;9169;44.492;11.372;2022-08-18T12:35:43;38.90;36.50
18085;DHT22;9169;44.492;11.372;2022-08-18T12:38:10;39.40;35.90
18085;DHT22;9169;44.492;11.372;2022-08-18T12:40:37;40.00;35.60
18085;DHT22;9169;44.492;11.372;2022-08-18T12:43:04;40.70;35.10
18085;DHT22;9169;44.492;11.372;2022-08-18T12:45:31;40.80;34.30
18085;DHT22;9169;44.492;11.372;2022-08-18T12:48:00;41.00;34.50
18085;DHT22;9169;44.492;11.372;2022-08-18T12:50:26;41.40;34.30
18085;DHT22;9169;44.492;11.372;2022-08-18T12:52:53;41.60;33.70
18085;DHT22;9169;44.492;11.372;2022-08-18T12:55:20;41.20;33.40
18085;DHT22;9169;44.492;11.372;2022-08-18T12:57:47;40.40;33.40
18085;DHT22;9169;44.492;11.372;2022-08-18T13:00:14;39.40;33.70
18085;DHT22;9169;44.492;11.372;2022-08-18T13:02:41;38.50;34.40
18085;DHT22;9169;44.492;11.372;2022-08-18T13:05:09;37.70;35.20
18085;DHT22;9169;44.492;11.372;2022-08-18T13:07:36;37.00;35.60
18085;DHT22;9169;44.492;11.372;2022-08-18T13:10:04;36.50;36.10
18085;DHT22;9169;44.492;11.372;2022-08-18T13:12:31;36.40;36.70
18085;DHT22;9169;44.492;11.372;2022-08-18T13:14:58;36.40;36.60
18085;DHT22;9169;44.492;11.372;2022-08-18T13:17:25;36.30;36.30
18085;DHT22;9169;44.492;11.372;2022-08-18T13:19:51;36.00;36.30
18085;DHT22;9169;44.492;11.372;2022-08-18T13:22:20;35.50;36.50
18085;DHT22;9169;44.492;11.372;2022-08-18T13:24:47;35.10;36.80
18085;DHT22;9169;44.492;11.372;2022-08-18T13:27:20;34.80;37.20
18085;DHT22;9169;44.492;11.372;2022-08-18T13:29:47;34.50;37.40
18085;DHT22;9169;44.492;11.372;2022-08-18T13:32:13;34.30;37.50
18085;DHT22;9169;44.492;11.372;2022-08-18T13:34:40;34.20;37.60
18085;DHT22;9169;44.492;11.372;2022-08-18T13:37:07;34.00;37.70
18085;DHT22;9169;44.492;11.372;2022-08-18T13:39:35;34.20;38.00
18085;DHT22;9169;44.492;11.372;2022-08-18T13:42:03;34.60;38.10
18085;DHT22;9169;44.492;11.372;2022-08-18T13:44:30;35.60;38.00
18085;DHT22;9169;44.492;11.372;2022-08-18T13:46:57;36.60;37.40
18085;DHT22;9169;44.492;11.372;2022-08-18T13:49:24;37.80;36.60
18085;DHT22;9169;44.492;11.372;2022-08-18T13:51:51;38.30;35.40
18085;DHT22;9169;44.492;11.372;2022-08-18T13:54:24;38.30;34.90
18085;DHT22;9169;44.492;11.372;2022-08-18T13:56:54;38.50;34.90
18085;DHT22;9169;44.492;11.372;2022-08-18T13:59:21;39.00;35.00
18085;DHT22;9169;44.492;11.372;2022-08-18T14:01:48;39.80;34.60
18085;DHT22;9169;44.492;11.372;2022-08-18T14:04:15;40.40;33.80
18085;DHT22;9169;44.492;11.372;2022-08-18T14:06:42;40.90;33.60
18085;DHT22;9169;44.492;11.372;2022-08-18T14:09:09;41.30;32.90
18085;DHT22;9169;44.492;11.372;2022-08-18T14:11:37;41.70;32.90
18085;DHT22;9169;44.492;11.372;2022-08-18T14:14:06;42.00;32.60
18085;DHT22;9169;44.492;11.372;2022-08-18T14:16:33;41.80;31.90
18085;DHT22;9169;44.492;11.372;2022-08-18T14:19:00;41.00;31.80
18085;DHT22;9169;44.492;11.372;2022-08-18T14:21:45;40.20;32.10
18085;DHT22;9169;44.492;11.372;2022-08-18T14:24:38;39.40;32.80
18085;DHT22;9169;44.492;11.372;2022-08-18T14:27:24;38.70;33.30
18085;DHT22;9169;44.492;11.372;2022-08-18T14:29:52;38.10;33.60
18085;DHT22;9169;44.492;11.372;2022-08-18T14:32:20;37.70;34.10
18085;DHT22;9169;44.492;11.372;2022-08-18T14:34:47;37.30;34.50
18085;DHT22;9169;44.492;11.372;2022-08-18T14:37:14;37.10;34.70
18085;DHT22;9169;44.492;11.372;2022-08-18T14:39:41;36.80;34.90
18085;DHT22;9169;44.492;11.372;2022-08-18T14:42:08;36.70;35.20
18085;DHT22;9169;44.492;11.372;2022-08-18T14:44:35;36.50;35.20
18085;DHT22;9169;44.492;11.372;2022-08-18T14:47:03;36.40;35.30
18085;DHT22;9169;44.492;11.372;2022-08-18T14:49:30;36.30;35.40
18085;DHT22;9169;44.492;11.372;2022-08-18T14:51:58;36.10;35.00
18085;DHT22;9169;44.492;11.372;2022-08-18T14:54:25;35.60;34.70
18085;DHT22;9169;44.492;11.372;2022-08-18T14:56:51;35.60;35.30
18085;DHT22;9169;44.492;11.372;2022-08-18T14:59:18;35.40;35.30
18085;DHT22;9169;44.492;11.372;2022-08-18T15:01:45;35.30;35.40
18085;DHT22;9169;44.492;11.372;2022-08-18T15:04:14;35.20;35.40
18085;DHT22;9169;44.492;11.372;2022-08-18T15:06:41;35.20;35.30
18085;DHT22;9169;44.492;11.372;2022-08-18T15:09:08;35.00;35.20
18085;DHT22;9169;44.492;11.372;2022-08-18T15:11:35;34.90;35.30
18085;DHT22;9169;44.492;11.372;2022-08-18T15:14:01;34.90;35.40
18085;DHT22;9169;44.492;11.372;2022-08-18T15:16:28;34.80;35.40
18085;DHT22;9169;44.492;11.372;2022-08-18T15:18:59;34.80;35.60
18085;DHT22;9169;44.492;11.372;2022-08-18T15:21:27;34.60;35.50
18085;DHT22;9169;44.492;11.372;2022-08-18T15:24:11;34.40;35.60
18085;DHT22;9169;44.492;11.372;2022-08-18T15:26:56;34.30;35.70
18085;DHT22;9169;44.492;11.372;2022-08-18T15:29:23;34.10;35.90
18085;DHT22;9169;44.492;11.372;2022-08-18T15:31:49;34.00;36.00
18085;DHT22;9169;44.492;11.372;2022-08-18T15:34:16;33.90;36.10
18085;DHT22;9169;44.492;11.372;2022-08-18T15:36:45;33.80;36.10
18085;DHT22;9169;44.492;11.372;2022-08-18T15:39:12;33.80;36.10
18085;DHT22;9169;44.492;11.372;2022-08-18T15:41:39;33.90;36.20
18085;DHT22;9169;44.492;11.372;2022-08-18T15:44:07;33.80;36.00
18085;DHT22;9169;44.492;11.372;2022-08-18T15:46:35;33.80;36.10
18085;DHT22;9169;44.492;11.372;2022-08-18T15:49:03;33.70;36.10
18085;DHT22;9169;44.492;11.372;2022-08-18T15:51:32;33.70;36.20
18085;DHT22;9169;44.492;11.372;2022-08-18T15:54:00;33.60;36.40
18085;DHT22;9169;44.492;11.372;2022-08-18T15:56:27;33.60;36.40
18085;DHT22;9169;44.492;11.372;2022-08-18T15:58:56;33.70;36.50
18085;DHT22;9169;44.492;11.372;2022-08-18T16:01:23;33.60;36.40